sensor_id;sensor_type;location;lat;lon;timestamp;temperature;humidity
78467;SHT31;67759;51.972;5.650;2024-01-11T00:00:27;5.0;34.7
78467;SHT31;67759;51.972;5.650;2024-01-11T00:02:56;5.0;35.3
78467;SHT31;67759;51.972;5.650;2024-01-11T00:05:25;5.1;35.2
78467;SHT31;67759;51.972;5.650;2024-01-11T00:07:53;5.1;35.3
78467;SHT31;67759;51.972;5.650;2024-01-11T00:10:25;5.1;35.5
78467;SHT31;67759;51.972;5.650;2024-01-11T00:12:54;5.1;35.4
78467;SHT31;67759;51.972;5.650;2024-01-11T00:15:22;5.1;34.9
78467;SHT31;67759;51.972;5.650;2024-01-11T00:17:51;5.1;34.3
78467;SHT31;67759;51.972;5.650;2024-01-11T00:20:19;5.0;34.7
78467;SHT31;67759;51.972;5.650;2024-01-11T00:22:49;4.9;34.4
78467;SHT31;67759;51.972;5.650;2024-01-11T00:25:17;4.9;34.5
78467;SHT31;67759;51.972;5.650;2024-01-11T00:27:46;4.8;35.0
78467;SHT31;67759;51.972;5.650;2024-01-11T00:30:15;4.7;35.8
78467;SHT31;67759;51.972;5.650;2024-01-11T00:32:45;4.7;35.0
78467;SHT31;67759;51.972;5.650;2024-01-11T00:35:14;4.6;34.7
78467;SHT31;67759;51.972;5.650;2024-01-11T00:37:44;4.6;35.2
78467;SHT31;67759;51.972;5.650;2024-01-11T00:40:14;4.6;35.6
78467;SHT31;67759;51.972;5.650;2024-01-11T00:42:43;4.6;36.2
78467;SHT31;67759;51.972;5.650;2024-01-11T00:45:13;4.6;35.6
78467;SHT31;67759;51.972;5.650;2024-01-11T00:47:41;4.6;35.6
78467;SHT31;67759;51.972;5.650;2024-01-11T00:50:14;4.5;35.6
78467;SHT31;67759;51.972;5.650;2024-01-11T00:52:42;4.5;35.2
78467;SHT31;67759;51.972;5.650;2024-01-11T00:55:11;4.4;35.6
78467;SHT31;67759;51.972;5.650;2024-01-11T00:57:41;4.4;35.7
78467;SHT31;67759;51.972;5.650;2024-01-11T01:00:12;4.4;35.9
78467;SHT31;67759;51.972;5.650;2024-01-11T01:02:43;4.3;35.7
78467;SHT31;67759;51.972;5.650;2024-01-11T01:05:11;4.3;36.3
78467;SHT31;67759;51.972;5.650;2024-01-11T01:07:40;4.3;35.6
78467;SHT31;67759;51.972;5.650;2024-01-11T01:10:09;4.3;36.1
78467;SHT31;67759;51.972;5.650;2024-01-11T01:12:39;4.2;36.2
78467;SHT31;67759;51.972;5.650;2024-01-11T01:15:08;4.2;36.4
78467;SHT31;67759;51.972;5.650;2024-01-11T01:17:37;4.1;36.4
78467;SHT31;67759;51.972;5.650;2024-01-11T01:20:07;4.1;36.1
78467;SHT31;67759;51.972;5.650;2024-01-11T01:22:36;4.1;36.6
78467;SHT31;67759;51.972;5.650;2024-01-11T01:25:06;4.1;37.1
78467;SHT31;67759;51.972;5.650;2024-01-11T01:27:34;4.1;37.0
78467;SHT31;67759;51.972;5.650;2024-01-11T01:30:05;4.1;36.4
78467;SHT31;67759;51.972;5.650;2024-01-11T01:32:35;4.2;36.8
78467;SHT31;67759;51.972;5.650;2024-01-11T01:35:05;4.2;36.5
78467;SHT31;67759;51.972;5.650;2024-01-11T01:37:40;4.2;36.5
78467;SHT31;67759;51.972;5.650;2024-01-11T01:40:12;4.2;36.4
78467;SHT31;67759;51.972;5.650;2024-01-11T01:42:43;4.2;36.5
78467;SHT31;67759;51.972;5.650;2024-01-11T01:45:15;4.2;36.8
78467;SHT31;67759;51.972;5.650;2024-01-11T01:47:45;4.2;36.6
78467;SHT31;67759;51.972;5.650;2024-01-11T01:50:14;4.2;36.6
78467;SHT31;67759;51.972;5.650;2024-01-11T01:52:44;4.2;36.4
78467;SHT31;67759;51.972;5.650;2024-01-11T01:55:15;4.1;36.9
78467;SHT31;67759;51.972;5.650;2024-01-11T01:57:45;4.1;36.8
78467;SHT31;67759;51.972;5.650;2024-01-11T02:00:16;4.1;36.6
78467;SHT31;67759;51.972;5.650;2024-01-11T02:02:50;4.1;36.6
78467;SHT31;67759;51.972;5.650;2024-01-11T02:05:20;4.0;36.7
78467;SHT31;67759;51.972;5.650;2024-01-11T02:07:49;4.0;36.7
78467;SHT31;67759;51.972;5.650;2024-01-11T02:10:18;4.0;37.1
78467;SHT31;67759;51.972;5.650;2024-01-11T02:12:48;3.9;37.2
78467;SHT31;67759;51.972;5.650;2024-01-11T02:15:17;3.9;37.0
78467;SHT31;67759;51.972;5.650;2024-01-11T02:17:48;3.8;37.3
78467;SHT31;67759;51.972;5.650;2024-01-11T02:20:17;3.8;37.5
78467;SHT31;67759;51.972;5.650;2024-01-11T02:22:48;3.8;37.5
78467;SHT31;67759;51.972;5.650;2024-01-11T02:25:20;3.8;37.5
78467;SHT31;67759;51.972;5.650;2024-01-11T02:27:50;3.8;37.5
78467;SHT31;67759;51.972;5.650;2024-01-11T02:30:18;3.7;37.4
78467;SHT31;67759;51.972;5.650;2024-01-11T02:32:48;3.7;37.5
78467;SHT31;67759;51.972;5.650;2024-01-11T02:35:18;3.7;37.6
78467;SHT31;67759;51.972;5.650;2024-01-11T02:37:48;3.7;37.7
78467;SHT31;67759;51.972;5.650;2024-01-11T02:40:19;3.7;37.6
78467;SHT31;67759;51.972;5.650;2024-01-11T02:42:48;3.7;37.8
78467;SHT31;67759;51.972;5.650;2024-01-11T02:45:16;3.7;37.9
78467;SHT31;67759;51.972;5.650;2024-01-11T02:47:45;3.7;37.9
78467;SHT31;67759;51.972;5.650;2024-01-11T02:50:14;3.7;37.6
78467;SHT31;67759;51.972;5.650;2024-01-11T02:52:43;3.7;37.8
78467;SHT31;67759;51.972;5.650;2024-01-11T02:55:13;3.8;37.9
78467;SHT31;67759;51.972;5.650;2024-01-11T02:57:43;3.8;38.1
78467;SHT31;67759;51.972;5.650;2024-01-11T03:00:14;3.9;37.8
78467;SHT31;67759;51.972;5.650;2024-01-11T03:02:42;4.0;37.6
78467;SHT31;67759;51.972;5.650;2024-01-11T03:05:13;4.0;37.7
78467;SHT31;67759;51.972;5.650;2024-01-11T03:07:42;4.0;37.3
78467;SHT31;67759;51.972;5.650;2024-01-11T03:10:11;4.1;37.5
78467;SHT31;67759;51.972;5.650;2024-01-11T03:12:39;4.1;37.3
78467;SHT31;67759;51.972;5.650;2024-01-11T03:15:10;4.1;37.6
78467;SHT31;67759;51.972;5.650;2024-01-11T03:17:38;4.1;37.4
78467;SHT31;67759;51.972;5.650;2024-01-11T03:20:08;4.1;37.3
78467;SHT31;67759;51.972;5.650;2024-01-11T03:22:36;4.1;37.5
78467;SHT31;67759;51.972;5.650;2024-01-11T03:25:08;4.0;37.5
78467;SHT31;67759;51.972;5.650;2024-01-11T03:27:38;4.0;37.3
78467;SHT31;67759;51.972;5.650;2024-01-11T03:30:08;3.9;37.8
78467;SHT31;67759;51.972;5.650;2024-01-11T03:32:36;3.9;37.6
78467;SHT31;67759;51.972;5.650;2024-01-11T03:35:08;3.9;37.9
78467;SHT31;67759;51.972;5.650;2024-01-11T03:37:37;3.9;37.6
78467;SHT31;67759;51.972;5.650;2024-01-11T03:40:08;3.9;38.1
78467;SHT31;67759;51.972;5.650;2024-01-11T03:42:38;3.9;38.0
78467;SHT31;67759;51.972;5.650;2024-01-11T03:45:08;3.9;37.8
78467;SHT31;67759;51.972;5.650;2024-01-11T03:47:37;3.9;37.7
78467;SHT31;67759;51.972;5.650;2024-01-11T03:50:06;3.9;37.7
78467;SHT31;67759;51.972;5.650;2024-01-11T03:52:36;3.9;37.6
78467;SHT31;67759;51.972;5.650;2024-01-11T03:55:06;4.0;37.8
78467;SHT31;67759;51.972;5.650;2024-01-11T03:57:35;4.0;37.6
78467;SHT31;67759;51.972;5.650;2024-01-11T04:00:04;4.0;37.9
78467;SHT31;67759;51.972;5.650;2024-01-11T04:02:33;4.0;38.0
78467;SHT31;67759;51.972;5.650;2024-01-11T04:05:02;4.0;37.8
78467;SHT31;67759;51.972;5.650;2024-01-11T04:07:31;4.0;37.8
78467;SHT31;67759;51.972;5.650;2024-01-11T04:10:00;4.1;37.9
78467;SHT31;67759;51.972;5.650;2024-01-11T04:12:30;4.1;37.5
78467;SHT31;67759;51.972;5.650;2024-01-11T04:14:59;4.0;37.5
78467;SHT31;67759;51.972;5.650;2024-01-11T04:17:30;4.0;37.6
78467;SHT31;67759;51.972;5.650;2024-01-11T04:19:59;4.0;37.7
78467;SHT31;67759;51.972;5.650;2024-01-11T04:22:29;3.9;37.9
78467;SHT31;67759;51.972;5.650;2024-01-11T04:24:58;3.9;37.7
78467;SHT31;67759;51.972;5.650;2024-01-11T04:27:26;3.9;38.0
78467;SHT31;67759;51.972;5.650;2024-01-11T04:29:55;3.9;38.0
78467;SHT31;67759;51.972;5.650;2024-01-11T04:32:24;3.9;37.9
78467;SHT31;67759;51.972;5.650;2024-01-11T04:34:52;3.9;38.0
78467;SHT31;67759;51.972;5.650;2024-01-11T04:37:20;3.9;38.0
78467;SHT31;67759;51.972;5.650;2024-01-11T04:39:49;3.9;37.8
78467;SHT31;67759;51.972;5.650;2024-01-11T04:42:18;3.9;37.9
78467;SHT31;67759;51.972;5.650;2024-01-11T04:44:47;3.9;37.9
78467;SHT31;67759;51.972;5.650;2024-01-11T04:47:16;3.9;38.0
78467;SHT31;67759;51.972;5.650;2024-01-11T04:49:44;3.9;37.9
78467;SHT31;67759;51.972;5.650;2024-01-11T04:52:13;3.9;38.0
78467;SHT31;67759;51.972;5.650;2024-01-11T04:54:43;3.9;38.0
78467;SHT31;67759;51.972;5.650;2024-01-11T04:57:12;3.8;38.1
78467;SHT31;67759;51.972;5.650;2024-01-11T04:59:40;3.8;38.3
78467;SHT31;67759;51.972;5.650;2024-01-11T05:02:11;3.8;38.3
78467;SHT31;67759;51.972;5.650;2024-01-11T05:04:39;3.7;38.5
78467;SHT31;67759;51.972;5.650;2024-01-11T05:07:08;3.6;38.8
78467;SHT31;67759;51.972;5.650;2024-01-11T05:09:37;3.6;38.9
78467;SHT31;67759;51.972;5.650;2024-01-11T05:12:08;3.6;39.0
78467;SHT31;67759;51.972;5.650;2024-01-11T05:14:37;3.6;39.0
78467;SHT31;67759;51.972;5.650;2024-01-11T05:17:06;3.6;39.0
78467;SHT31;67759;51.972;5.650;2024-01-11T05:19:36;3.6;39.0
78467;SHT31;67759;51.972;5.650;2024-01-11T05:22:05;3.5;39.0
78467;SHT31;67759;51.972;5.650;2024-01-11T05:24:33;3.5;39.1
78467;SHT31;67759;51.972;5.650;2024-01-11T05:27:02;3.5;39.2
78467;SHT31;67759;51.972;5.650;2024-01-11T05:29:31;3.4;39.3
78467;SHT31;67759;51.972;5.650;2024-01-11T05:32:00;3.4;39.3
78467;SHT31;67759;51.972;5.650;2024-01-11T05:34:28;3.4;39.3
78467;SHT31;67759;51.972;5.650;2024-01-11T05:36:57;3.4;39.5
78467;SHT31;67759;51.972;5.650;2024-01-11T05:39:26;3.3;39.5
78467;SHT31;67759;51.972;5.650;2024-01-11T05:41:55;3.3;39.7
78467;SHT31;67759;51.972;5.650;2024-01-11T05:44:24;3.2;39.9
78467;SHT31;67759;51.972;5.650;2024-01-11T05:46:52;3.2;40.0
78467;SHT31;67759;51.972;5.650;2024-01-11T05:49:21;3.2;40.1
78467;SHT31;67759;51.972;5.650;2024-01-11T05:51:50;3.2;40.0
78467;SHT31;67759;51.972;5.650;2024-01-11T05:54:18;3.2;40.0
78467;SHT31;67759;51.972;5.650;2024-01-11T05:56:48;3.3;40.0
78467;SHT31;67759;51.972;5.650;2024-01-11T05:59:21;3.3;39.8
78467;SHT31;67759;51.972;5.650;2024-01-11T06:01:50;3.4;39.5
78467;SHT31;67759;51.972;5.650;2024-01-11T06:04:21;3.4;39.5
78467;SHT31;67759;51.972;5.650;2024-01-11T06:06:49;3.4;39.2
78467;SHT31;67759;51.972;5.650;2024-01-11T06:09:18;3.4;39.2
78467;SHT31;67759;51.972;5.650;2024-01-11T06:11:46;3.4;39.2
78467;SHT31;67759;51.972;5.650;2024-01-11T06:14:16;3.5;39.1
78467;SHT31;67759;51.972;5.650;2024-01-11T06:16:45;3.5;39.1
78467;SHT31;67759;51.972;5.650;2024-01-11T06:19:13;3.5;38.9
78467;SHT31;67759;51.972;5.650;2024-01-11T06:21:42;3.5;39.1
78467;SHT31;67759;51.972;5.650;2024-01-11T06:24:10;3.5;39.1
78467;SHT31;67759;51.972;5.650;2024-01-11T06:26:39;3.5;39.2
78467;SHT31;67759;51.972;5.650;2024-01-11T06:29:07;3.5;39.2
78467;SHT31;67759;51.972;5.650;2024-01-11T06:31:36;3.5;39.2
78467;SHT31;67759;51.972;5.650;2024-01-11T06:34:05;3.5;39.2
78467;SHT31;67759;51.972;5.650;2024-01-11T06:36:35;3.4;39.4
78467;SHT31;67759;51.972;5.650;2024-01-11T06:39:04;3.4;39.6
78467;SHT31;67759;51.972;5.650;2024-01-11T06:41:33;3.3;39.7
78467;SHT31;67759;51.972;5.650;2024-01-11T06:44:01;3.3;39.6
78467;SHT31;67759;51.972;5.650;2024-01-11T06:46:30;3.3;39.7
78467;SHT31;67759;51.972;5.650;2024-01-11T06:48:59;3.3;39.7
78467;SHT31;67759;51.972;5.650;2024-01-11T06:51:27;3.3;39.5
78467;SHT31;67759;51.972;5.650;2024-01-11T06:54:01;3.3;39.6
78467;SHT31;67759;51.972;5.650;2024-01-11T06:56:29;3.3;39.7
78467;SHT31;67759;51.972;5.650;2024-01-11T06:58:58;3.3;39.7
78467;SHT31;67759;51.972;5.650;2024-01-11T07:01:27;3.3;39.8
78467;SHT31;67759;51.972;5.650;2024-01-11T07:03:58;3.3;39.9
78467;SHT31;67759;51.972;5.650;2024-01-11T07:06:26;3.3;39.9
78467;SHT31;67759;51.972;5.650;2024-01-11T07:08:55;3.2;39.9
78467;SHT31;67759;51.972;5.650;2024-01-11T07:11:24;3.2;40.0
78467;SHT31;67759;51.972;5.650;2024-01-11T07:13:53;3.2;40.0
78467;SHT31;67759;51.972;5.650;2024-01-11T07:16:25;3.2;40.0
78467;SHT31;67759;51.972;5.650;2024-01-11T07:18:56;3.2;40.0
78467;SHT31;67759;51.972;5.650;2024-01-11T07:21:26;3.2;40.0
78467;SHT31;67759;51.972;5.650;2024-01-11T07:23:59;3.2;40.1
78467;SHT31;67759;51.972;5.650;2024-01-11T07:26:28;3.2;40.2
78467;SHT31;67759;51.972;5.650;2024-01-11T07:28:56;3.2;40.0
78467;SHT31;67759;51.972;5.650;2024-01-11T07:31:25;3.2;39.9
78467;SHT31;67759;51.972;5.650;2024-01-11T07:33:53;3.2;40.0
78467;SHT31;67759;51.972;5.650;2024-01-11T07:36:24;3.2;39.8
78467;SHT31;67759;51.972;5.650;2024-01-11T07:38:53;3.2;39.9
78467;SHT31;67759;51.972;5.650;2024-01-11T07:41:23;3.2;40.0
78467;SHT31;67759;51.972;5.650;2024-01-11T07:43:52;3.2;40.0
78467;SHT31;67759;51.972;5.650;2024-01-11T07:46:24;3.3;39.9
78467;SHT31;67759;51.972;5.650;2024-01-11T07:48:53;3.3;39.9
78467;SHT31;67759;51.972;5.650;2024-01-11T07:51:23;3.3;40.0
78467;SHT31;67759;51.972;5.650;2024-01-11T07:53:53;3.3;40.1
78467;SHT31;67759;51.972;5.650;2024-01-11T07:56:22;3.3;40.1
78467;SHT31;67759;51.972;5.650;2024-01-11T07:58:50;3.3;40.2
78467;SHT31;67759;51.972;5.650;2024-01-11T08:01:19;3.3;40.2
78467;SHT31;67759;51.972;5.650;2024-01-11T08:03:48;3.3;39.9
78467;SHT31;67759;51.972;5.650;2024-01-11T08:06:18;3.3;40.0
78467;SHT31;67759;51.972;5.650;2024-01-11T08:08:49;3.3;40.1
78467;SHT31;67759;51.972;5.650;2024-01-11T08:11:18;3.3;40.0
78467;SHT31;67759;51.972;5.650;2024-01-11T08:13:46;3.3;39.8
78467;SHT31;67759;51.972;5.650;2024-01-11T08:16:19;3.3;40.2
78467;SHT31;67759;51.972;5.650;2024-01-11T08:18:47;3.3;40.2
78467;SHT31;67759;51.972;5.650;2024-01-11T08:21:16;3.3;40.3
78467;SHT31;67759;51.972;5.650;2024-01-11T08:23:46;3.3;40.3
78467;SHT31;67759;51.972;5.650;2024-01-11T08:26:16;3.3;40.3
78467;SHT31;67759;51.972;5.650;2024-01-11T08:28:45;3.3;40.6
78467;SHT31;67759;51.972;5.650;2024-01-11T08:31:14;3.3;40.4
78467;SHT31;67759;51.972;5.650;2024-01-11T08:33:45;3.3;40.4
78467;SHT31;67759;51.972;5.650;2024-01-11T08:36:14;3.3;40.5
78467;SHT31;67759;51.972;5.650;2024-01-11T08:38:42;3.3;40.7
78467;SHT31;67759;51.972;5.650;2024-01-11T08:41:11;3.3;40.8
78467;SHT31;67759;51.972;5.650;2024-01-11T08:43:39;3.3;40.8
78467;SHT31;67759;51.972;5.650;2024-01-11T08:46:08;3.4;40.8
78467;SHT31;67759;51.972;5.650;2024-01-11T08:48:37;3.4;40.9
78467;SHT31;67759;51.972;5.650;2024-01-11T08:51:07;3.4;40.7
78467;SHT31;67759;51.972;5.650;2024-01-11T08:53:36;3.4;41.0
78467;SHT31;67759;51.972;5.650;2024-01-11T08:56:05;3.3;41.0
78467;SHT31;67759;51.972;5.650;2024-01-11T08:58:33;3.3;41.0
78467;SHT31;67759;51.972;5.650;2024-01-11T09:01:03;3.3;41.1
78467;SHT31;67759;51.972;5.650;2024-01-11T09:03:36;3.3;41.3
78467;SHT31;67759;51.972;5.650;2024-01-11T09:06:06;3.3;41.3
78467;SHT31;67759;51.972;5.650;2024-01-11T09:08:34;3.4;41.0
78467;SHT31;67759;51.972;5.650;2024-01-11T09:11:03;3.4;41.2
78467;SHT31;67759;51.972;5.650;2024-01-11T09:13:33;3.5;41.0
78467;SHT31;67759;51.972;5.650;2024-01-11T09:16:02;3.5;40.9
78467;SHT31;67759;51.972;5.650;2024-01-11T09:18:30;3.5;40.9
78467;SHT31;67759;51.972;5.650;2024-01-11T09:21:01;3.5;41.0
78467;SHT31;67759;51.972;5.650;2024-01-11T09:23:30;3.6;41.3
78467;SHT31;67759;51.972;5.650;2024-01-11T09:26:01;3.7;41.2
78467;SHT31;67759;51.972;5.650;2024-01-11T09:28:30;3.9;40.4
78467;SHT31;67759;51.972;5.650;2024-01-11T09:30:58;4.0;40.5
78467;SHT31;67759;51.972;5.650;2024-01-11T09:33:28;4.1;40.4
78467;SHT31;67759;51.972;5.650;2024-01-11T09:35:56;4.2;40.0
78467;SHT31;67759;51.972;5.650;2024-01-11T09:38:25;4.3;39.8
78467;SHT31;67759;51.972;5.650;2024-01-11T09:41:05;4.4;39.5
78467;SHT31;67759;51.972;5.650;2024-01-11T09:43:36;4.4;39.2
78467;SHT31;67759;51.972;5.650;2024-01-11T09:46:06;4.4;39.3
78467;SHT31;67759;51.972;5.650;2024-01-11T09:48:35;4.4;39.7
78467;SHT31;67759;51.972;5.650;2024-01-11T09:51:09;4.4;39.6
78467;SHT31;67759;51.972;5.650;2024-01-11T09:53:38;4.5;39.6
78467;SHT31;67759;51.972;5.650;2024-01-11T09:56:09;4.5;39.9
78467;SHT31;67759;51.972;5.650;2024-01-11T09:58:45;4.5;40.0
78467;SHT31;67759;51.972;5.650;2024-01-11T10:01:17;4.7;40.2
78467;SHT31;67759;51.972;5.650;2024-01-11T10:03:46;5.0;40.0
78467;SHT31;67759;51.972;5.650;2024-01-11T10:06:14;5.4;39.2
78467;SHT31;67759;51.972;5.650;2024-01-11T10:08:44;5.7;38.8
78467;SHT31;67759;51.972;5.650;2024-01-11T10:11:12;6.0;38.2
78467;SHT31;67759;51.972;5.650;2024-01-11T10:13:41;6.3;37.6
78467;SHT31;67759;51.972;5.650;2024-01-11T10:16:11;6.7;37.2
78467;SHT31;67759;51.972;5.650;2024-01-11T10:18:42;7.0;36.7
78467;SHT31;67759;51.972;5.650;2024-01-11T10:21:11;7.3;36.3
78467;SHT31;67759;51.972;5.650;2024-01-11T10:23:41;7.4;36.2
78467;SHT31;67759;51.972;5.650;2024-01-11T10:26:10;7.5;36.1
78467;SHT31;67759;51.972;5.650;2024-01-11T10:28:42;7.6;36.1
78467;SHT31;67759;51.972;5.650;2024-01-11T10:31:13;7.6;36.2
78467;SHT31;67759;51.972;5.650;2024-01-11T10:33:45;7.6;36.6
78467;SHT31;67759;51.972;5.650;2024-01-11T10:36:13;7.5;36.8
78467;SHT31;67759;51.972;5.650;2024-01-11T10:38:43;7.5;36.9
78467;SHT31;67759;51.972;5.650;2024-01-11T10:41:18;7.5;37.1
78467;SHT31;67759;51.972;5.650;2024-01-11T10:43:48;7.5;37.2
78467;SHT31;67759;51.972;5.650;2024-01-11T10:46:23;7.4;37.7
78467;SHT31;67759;51.972;5.650;2024-01-11T10:48:56;7.3;38.2
78467;SHT31;67759;51.972;5.650;2024-01-11T10:51:28;7.2;38.6
78467;SHT31;67759;51.972;5.650;2024-01-11T10:54:02;7.1;39.0
78467;SHT31;67759;51.972;5.650;2024-01-11T10:56:31;7.0;40.1
78467;SHT31;67759;51.972;5.650;2024-01-11T10:59:02;6.8;41.1
78467;SHT31;67759;51.972;5.650;2024-01-11T11:01:31;6.7;42.4
78467;SHT31;67759;51.972;5.650;2024-01-11T11:04:03;6.6;43.1
78467;SHT31;67759;51.972;5.650;2024-01-11T11:06:32;6.6;43.8
78467;SHT31;67759;51.972;5.650;2024-01-11T11:09:04;6.6;44.0
78467;SHT31;67759;51.972;5.650;2024-01-11T11:11:34;6.6;44.8
78467;SHT31;67759;51.972;5.650;2024-01-11T11:14:05;6.6;44.6
78467;SHT31;67759;51.972;5.650;2024-01-11T11:16:35;6.6;45.6
78467;SHT31;67759;51.972;5.650;2024-01-11T11:19:06;6.6;46.2
78467;SHT31;67759;51.972;5.650;2024-01-11T11:21:43;6.6;46.2
78467;SHT31;67759;51.972;5.650;2024-01-11T11:24:13;6.6;47.0
78467;SHT31;67759;51.972;5.650;2024-01-11T11:26:43;6.7;46.8
78467;SHT31;67759;51.972;5.650;2024-01-11T11:29:12;6.9;46.3
78467;SHT31;67759;51.972;5.650;2024-01-11T11:31:44;7.1;46.2
78467;SHT31;67759;51.972;5.650;2024-01-11T11:34:14;7.2;46.3
78467;SHT31;67759;51.972;5.650;2024-01-11T11:36:46;7.3;45.8
78467;SHT31;67759;51.972;5.650;2024-01-11T11:39:16;7.4;46.5
78467;SHT31;67759;51.972;5.650;2024-01-11T11:41:48;7.5;46.4
78467;SHT31;67759;51.972;5.650;2024-01-11T11:44:17;7.7;45.8
78467;SHT31;67759;51.972;5.650;2024-01-11T11:46:51;7.9;45.1
78467;SHT31;67759;51.972;5.650;2024-01-11T11:49:20;8.1;45.0
78467;SHT31;67759;51.972;5.650;2024-01-11T11:51:52;8.3;44.5
78467;SHT31;67759;51.972;5.650;2024-01-11T11:54:26;8.5;44.4
78467;SHT31;67759;51.972;5.650;2024-01-11T11:56:59;8.6;44.0
78467;SHT31;67759;51.972;5.650;2024-01-11T11:59:29;8.8;43.6
78467;SHT31;67759;51.972;5.650;2024-01-11T12:02:02;8.9;43.3
78467;SHT31;67759;51.972;5.650;2024-01-11T12:04:33;9.0;43.2
78467;SHT31;67759;51.972;5.650;2024-01-11T12:07:02;9.1;43.2
78467;SHT31;67759;51.972;5.650;2024-01-11T12:09:30;9.1;42.8
78467;SHT31;67759;51.972;5.650;2024-01-11T12:11:59;9.2;42.7
78467;SHT31;67759;51.972;5.650;2024-01-11T12:14:28;9.2;42.9
78467;SHT31;67759;51.972;5.650;2024-01-11T12:16:58;9.3;42.8
78467;SHT31;67759;51.972;5.650;2024-01-11T12:19:28;9.3;43.0
78467;SHT31;67759;51.972;5.650;2024-01-11T12:21:57;9.4;43.0
78467;SHT31;67759;51.972;5.650;2024-01-11T12:24:26;9.5;42.5
78467;SHT31;67759;51.972;5.650;2024-01-11T12:26:57;9.6;42.3
78467;SHT31;67759;51.972;5.650;2024-01-11T12:29:30;9.7;42.3
78467;SHT31;67759;51.972;5.650;2024-01-11T12:32:00;9.8;42.2
78467;SHT31;67759;51.972;5.650;2024-01-11T12:34:29;9.9;41.9
78467;SHT31;67759;51.972;5.650;2024-01-11T12:36:59;9.9;42.1
78467;SHT31;67759;51.972;5.650;2024-01-11T12:39:31;10.0;41.6
78467;SHT31;67759;51.972;5.650;2024-01-11T12:42:00;10.1;41.7
78467;SHT31;67759;51.972;5.650;2024-01-11T12:44:32;10.2;41.6
78467;SHT31;67759;51.972;5.650;2024-01-11T12:47:04;10.2;41.5
78467;SHT31;67759;51.972;5.650;2024-01-11T12:49:33;10.3;41.4
78467;SHT31;67759;51.972;5.650;2024-01-11T12:52:02;10.4;41.1
78467;SHT31;67759;51.972;5.650;2024-01-11T12:54:32;10.4;41.0
78467;SHT31;67759;51.972;5.650;2024-01-11T12:57:03;10.5;40.9
78467;SHT31;67759;51.972;5.650;2024-01-11T12:59:31;10.5;40.8
78467;SHT31;67759;51.972;5.650;2024-01-11T13:02:00;10.5;40.9
78467;SHT31;67759;51.972;5.650;2024-01-11T13:04:29;10.6;40.9
78467;SHT31;67759;51.972;5.650;2024-01-11T13:06:59;10.5;41.1
78467;SHT31;67759;51.972;5.650;2024-01-11T13:09:27;10.5;41.1
78467;SHT31;67759;51.972;5.650;2024-01-11T13:11:56;10.5;40.9
78467;SHT31;67759;51.972;5.650;2024-01-11T13:14:26;10.5;41.1
78467;SHT31;67759;51.972;5.650;2024-01-11T13:16:55;10.5;41.1
78467;SHT31;67759;51.972;5.650;2024-01-11T13:19:24;10.5;41.1
78467;SHT31;67759;51.972;5.650;2024-01-11T13:21:56;10.4;41.3
78467;SHT31;67759;51.972;5.650;2024-01-11T13:24:25;10.4;41.4
78467;SHT31;67759;51.972;5.650;2024-01-11T13:26:54;10.4;41.7
78467;SHT31;67759;51.972;5.650;2024-01-11T13:29:23;10.4;41.6
78467;SHT31;67759;51.972;5.650;2024-01-11T13:31:51;10.4;41.7
78467;SHT31;67759;51.972;5.650;2024-01-11T13:34:20;10.4;41.7
78467;SHT31;67759;51.972;5.650;2024-01-11T13:36:53;10.4;41.5
78467;SHT31;67759;51.972;5.650;2024-01-11T13:39:21;10.4;41.5
78467;SHT31;67759;51.972;5.650;2024-01-11T13:41:50;10.4;41.7
78467;SHT31;67759;51.972;5.650;2024-01-11T13:44:19;10.4;41.7
78467;SHT31;67759;51.972;5.650;2024-01-11T13:46:47;10.4;41.7
78467;SHT31;67759;51.972;5.650;2024-01-11T13:49:16;10.4;41.8
78467;SHT31;67759;51.972;5.650;2024-01-11T13:51:45;10.4;41.8
78467;SHT31;67759;51.972;5.650;2024-01-11T13:54:14;10.3;42.0
78467;SHT31;67759;51.972;5.650;2024-01-11T13:56:42;10.3;42.1
78467;SHT31;67759;51.972;5.650;2024-01-11T13:59:11;10.3;42.2
78467;SHT31;67759;51.972;5.650;2024-01-11T14:01:40;10.2;42.3
78467;SHT31;67759;51.972;5.650;2024-01-11T14:04:08;10.2;42.3
78467;SHT31;67759;51.972;5.650;2024-01-11T14:06:37;10.2;42.6
78467;SHT31;67759;51.972;5.650;2024-01-11T14:09:06;10.1;42.6
78467;SHT31;67759;51.972;5.650;2024-01-11T14:11:36;10.1;42.8
78467;SHT31;67759;51.972;5.650;2024-01-11T14:14:04;10.0;43.0
78467;SHT31;67759;51.972;5.650;2024-01-11T14:16:33;10.0;43.2
78467;SHT31;67759;51.972;5.650;2024-01-11T14:19:01;10.0;43.3
78467;SHT31;67759;51.972;5.650;2024-01-11T14:21:30;10.0;43.3
78467;SHT31;67759;51.972;5.650;2024-01-11T14:23:59;9.9;43.4
78467;SHT31;67759;51.972;5.650;2024-01-11T14:26:28;9.9;43.7
78467;SHT31;67759;51.972;5.650;2024-01-11T14:28:57;9.9;43.7
78467;SHT31;67759;51.972;5.650;2024-01-11T14:31:27;9.9;43.9
78467;SHT31;67759;51.972;5.650;2024-01-11T14:33:56;9.8;43.9
78467;SHT31;67759;51.972;5.650;2024-01-11T14:36:25;9.8;43.8
78467;SHT31;67759;51.972;5.650;2024-01-11T14:38:53;9.8;43.9
78467;SHT31;67759;51.972;5.650;2024-01-11T14:41:21;9.8;44.1
78467;SHT31;67759;51.972;5.650;2024-01-11T14:43:50;9.7;44.1
78467;SHT31;67759;51.972;5.650;2024-01-11T14:46:21;9.7;44.2
78467;SHT31;67759;51.972;5.650;2024-01-11T14:48:49;9.7;44.1
78467;SHT31;67759;51.972;5.650;2024-01-11T14:51:18;9.7;44.0
78467;SHT31;67759;51.972;5.650;2024-01-11T14:53:47;9.6;44.3
78467;SHT31;67759;51.972;5.650;2024-01-11T14:56:17;9.6;44.4
78467;SHT31;67759;51.972;5.650;2024-01-11T14:58:47;9.6;44.6
78467;SHT31;67759;51.972;5.650;2024-01-11T15:01:15;9.5;44.6
78467;SHT31;67759;51.972;5.650;2024-01-11T15:03:44;9.5;44.9
78467;SHT31;67759;51.972;5.650;2024-01-11T15:06:12;9.4;45.2
78467;SHT31;67759;51.972;5.650;2024-01-11T15:08:43;9.4;45.4
78467;SHT31;67759;51.972;5.650;2024-01-11T15:11:11;9.4;45.7
78467;SHT31;67759;51.972;5.650;2024-01-11T15:13:40;9.4;45.9
78467;SHT31;67759;51.972;5.650;2024-01-11T15:16:08;9.5;45.7
78467;SHT31;67759;51.972;5.650;2024-01-11T15:18:37;9.5;45.4
78467;SHT31;67759;51.972;5.650;2024-01-11T15:21:08;9.5;45.6
78467;SHT31;67759;51.972;5.650;2024-01-11T15:23:41;9.6;45.5
78467;SHT31;67759;51.972;5.650;2024-01-11T15:26:10;9.6;45.7
78467;SHT31;67759;51.972;5.650;2024-01-11T15:28:42;9.7;45.2
78467;SHT31;67759;51.972;5.650;2024-01-11T15:31:10;9.7;45.1
78467;SHT31;67759;51.972;5.650;2024-01-11T15:33:39;9.7;45.1
78467;SHT31;67759;51.972;5.650;2024-01-11T15:36:10;9.7;45.3
78467;SHT31;67759;51.972;5.650;2024-01-11T15:38:39;9.7;45.5
78467;SHT31;67759;51.972;5.650;2024-01-11T15:41:07;9.7;45.6
78467;SHT31;67759;51.972;5.650;2024-01-11T15:43:37;9.7;45.6
78467;SHT31;67759;51.972;5.650;2024-01-11T15:46:07;9.6;45.9
78467;SHT31;67759;51.972;5.650;2024-01-11T15:48:36;9.6;46.2
78467;SHT31;67759;51.972;5.650;2024-01-11T15:51:05;9.7;46.3
78467;SHT31;67759;51.972;5.650;2024-01-11T15:53:33;9.7;45.6
78467;SHT31;67759;51.972;5.650;2024-01-11T15:56:02;9.8;45.4
78467;SHT31;67759;51.972;5.650;2024-01-11T15:58:32;9.8;45.5
78467;SHT31;67759;51.972;5.650;2024-01-11T16:01:01;9.7;45.8
78467;SHT31;67759;51.972;5.650;2024-01-11T16:03:30;9.7;46.0
78467;SHT31;67759;51.972;5.650;2024-01-11T16:05:59;9.7;46.1
78467;SHT31;67759;51.972;5.650;2024-01-11T16:08:27;9.7;46.0
78467;SHT31;67759;51.972;5.650;2024-01-11T16:10:56;9.7;46.1
78467;SHT31;67759;51.972;5.650;2024-01-11T16:13:25;9.7;46.0
78467;SHT31;67759;51.972;5.650;2024-01-11T16:15:54;9.6;46.2
78467;SHT31;67759;51.972;5.650;2024-01-11T16:18:24;9.6;46.1
78467;SHT31;67759;51.972;5.650;2024-01-11T16:20:56;9.6;46.4
78467;SHT31;67759;51.972;5.650;2024-01-11T16:23:24;9.6;46.8
78467;SHT31;67759;51.972;5.650;2024-01-11T16:25:53;9.6;46.3
78467;SHT31;67759;51.972;5.650;2024-01-11T16:28:21;9.6;46.6
78467;SHT31;67759;51.972;5.650;2024-01-11T16:30:50;9.6;46.8